Time;durP1;ratioP1;P1;durP2;ratioP2;P2;SDS_P1;SDS_P2;PMS_P1;PMS_P2;Temp;Humidity;BMP_temperature;BMP_pressure;BME280_temperature;BME280_humidity;BME280_pressure;Samples;Min_cycle;Max_cycle;Signal;HPM_P1;HPM_P2
2023/03/20 00:01:48;;;;;;;5.55;4.65;;;6.70;99.90;;;;;;5091618;28;20035;-85
2023/03/20 00:04:14;;;;;;;7.85;4.82;;;6.80;99.90;;;;;;5073909;28;20047;-84
2023/03/20 00:06:39;;;;;;;11.63;5.30;;;8.70;99.90;;;;;;5090771;28;20232;-83
2023/03/20 00:09:07;;;;;;;7.35;4.50;;;7.40;99.90;;;;;;5074580;28;20053;-82
2023/03/20 00:11:35;;;;;;;8.57;4.85;;;9.50;99.90;;;;;;5074140;28;20549;-82
2023/03/20 00:14:12;;;;;;;13.10;4.72;;;9.10;99.90;;;;;;5074057;28;20043;-83
2023/03/20 00:16:41;;;;;;;6.70;4.82;;;8.90;99.90;;;;;;5091421;28;20035;-84
2023/03/20 00:19:22;;;;;;;10.88;5.47;;;7.00;99.90;;;;;;5090114;28;20436;-83
2023/03/20 00:21:50;;;;;;;8.52;4.70;;;6.80;99.90;;;;;;5089817;28;20040;-84
2023/03/20 00:24:16;;;;;;;15.13;6.43;;;6.80;99.90;;;;;;5089903;28;20091;-83
2023/03/20 00:26:44;;;;;;;6.05;4.20;;;6.90;99.90;;;;;;5090303;28;20032;-82
2023/03/20 00:29:23;;;;;;;10.15;5.22;;;9.90;99.90;;;;;;5081211;28;20399;-83
2023/03/20 00:31:48;;;;;;;8.10;4.85;;;6.80;99.90;;;;;;5073898;28;20032;-83
2023/03/20 00:34:18;;;;;;;5.97;4.63;;;6.90;99.90;;;;;;5072204;28;20048;-83
2023/03/20 00:37:50;;;;;;;8.43;4.45;;;6.80;99.90;;;;;;5082528;28;20055;-85
2023/03/20 00:41:34;;;;;;;11.80;5.50;;;6.90;99.90;;;;;;5104184;28;20482;-83
2023/03/20 00:45:17;;;;;;;8.73;4.45;;;6.80;99.90;;;;;;5090205;28;20043;-83
2023/03/20 00:56:22;;;;;;;9.77;5.20;;;6.80;99.90;;;;;;5082676;28;20524;-85
2023/03/20 01:00:03;;;;;;;6.53;4.03;;;6.90;99.90;;;;;;5077977;28;20059;-83
2023/03/20 01:02:56;;;;;;;11.25;4.68;;;6.80;99.90;;;;;;5067091;28;20090;-82
2023/03/20 01:06:03;;;;;;;8.63;4.43;;;6.80;99.90;;;;;;5078942;28;20090;-82
2023/03/20 01:09:13;;;;;;;10.82;4.38;;;6.80;99.90;;;;;;5040172;28;20099;-81
2023/03/20 01:12:07;;;;;;;8.45;4.72;;;7.90;99.90;;;;;;5067035;28;20570;-82
2023/03/20 01:14:34;;;;;;;8.52;4.57;;;6.90;99.90;;;;;;5038872;28;20174;-82
2023/03/20 01:16:59;;;;;;;9.85;5.32;;;6.80;99.90;;;;;;5071050;28;20052;-84
2023/03/20 01:19:25;;;;;;;5.88;4.70;;;7.30;99.90;;;;;;5055179;28;20116;-84
2023/03/20 01:21:51;;;;;;;7.82;4.93;;;6.80;99.90;;;;;;5072275;28;20044;-84
2023/03/20 01:24:16;;;;;;;12.60;4.97;;;6.80;99.90;;;;;;5070786;28;20182;-85
2023/03/20 01:26:44;;;;;;;10.38;4.80;;;7.40;99.90;;;;;;5093231;28;20570;-85
2023/03/20 01:29:18;;;;;;;7.57;4.53;;;6.90;99.90;;;;;;5076552;28;20407;-85
2023/03/20 01:31:44;;;;;;;15.55;5.35;;;7.40;99.90;;;;;;5111284;28;20069;-84
2023/03/20 01:34:10;;;;;;;10.32;5.63;;;7.20;99.90;;;;;;5092977;28;20406;-81
2023/03/20 01:36:37;;;;;;;9.90;5.38;;;6.80;99.90;;;;;;5093616;28;20340;-83
2023/03/20 01:39:04;;;;;;;13.32;6.63;;;10.20;99.90;;;;;;5075831;28;20040;-82
2023/03/20 01:41:31;;;;;;;14.60;5.93;;;7.60;99.90;;;;;;5094054;28;20436;-85
2023/03/20 01:43:57;;;;;;;12.13;6.60;;;10.10;99.90;;;;;;5076838;28;20039;-83
2023/03/20 01:46:28;;;;;;;14.57;5.85;;;4.60;99.90;;;;;;5075565;28;20039;-84
2023/03/20 01:49:05;;;;;;;14.30;5.47;;;7.00;99.90;;;;;;5093036;28;20469;-82
2023/03/20 01:51:31;;;;;;;16.98;7.60;;;7.00;99.90;;;;;;5085320;28;20115;-84
2023/03/20 01:54:00;;;;;;;15.27;7.03;;;7.20;99.90;;;;;;5093295;28;20175;-83
2023/03/20 01:56:30;;;;;;;16.27;6.88;;;10.10;99.90;;;;;;5067873;28;20036;-81
2023/03/20 01:59:02;;;;;;;12.50;7.85;;;10.10;99.90;;;;;;5075598;28;20050;-83
2023/03/20 02:01:29;;;;;;;16.63;7.95;;;7.60;99.90;;;;;;5085642;28;20110;-82
2023/03/20 02:03:56;;;;;;;18.55;6.55;;;7.00;99.90;;;;;;5076126;28;20545;-84
2023/03/20 02:06:24;;;;;;;16.38;6.95;;;9.10;99.90;;;;;;5092204;28;20415;-84
2023/03/20 02:08:51;;;;;;;25.52;7.22;;;10.10;99.90;;;;;;5111446;28;20046;-82
2023/03/20 02:11:23;;;;;;;15.50;6.75;;;7.10;99.90;;;;;;5092407;28;20043;-83
2023/03/20 02:13:51;;;;;;;19.10;7.47;;;7.00;99.90;;;;;;5092799;28;20038;-82
2023/03/20 02:16:19;;;;;;;15.77;8.07;;;7.00;99.90;;;;;;5075705;28;20093;-83
2023/03/20 02:18:47;;;;;;;11.15;6.72;;;10.10;99.90;;;;;;5092552;28;20043;-84
2023/03/20 02:21:41;;;;;;;20.58;8.32;;;9.40;99.90;;;;;;5091537;28;20568;-83
2023/03/20 02:24:29;;;;;;;15.88;7.93;;;9.70;99.90;;;;;;5091954;28;20471;-83
2023/03/20 02:27:22;;;;;;;22.05;7.75;;;7.10;99.90;;;;;;5091662;28;20035;-84
2023/03/20 02:29:49;;;;;;;26.83;7.10;;;7.10;99.90;;;;;;5070474;28;20039;-83
2023/03/20 02:32:34;;;;;;;18.20;7.32;;;9.60;99.90;;;;;;5092055;28;20052;-84
2023/03/20 02:35:17;;;;;;;21.10;8.27;;;7.10;99.90;;;;;;5074674;28;20483;-83
2023/03/20 02:37:55;;;;;;;20.17;6.00;;;7.10;99.90;;;;;;5069488;28;20119;-84
2023/03/20 02:40:54;;;;;;;13.15;6.53;;;7.20;99.90;;;;;;5109984;28;20458;-83
2023/03/20 02:43:39;;;;;;;13.85;6.75;;;7.10;99.90;;;;;;5092123;28;20048;-83
2023/03/20 02:46:25;;;;;;;13.27;6.68;;;7.20;99.90;;;;;;5110067;28;20099;-84
2023/03/20 02:49:02;;;;;;;18.70;8.38;;;9.30;99.90;;;;;;5074034;28;20044;-82
2023/03/20 02:51:55;;;;;;;17.15;8.55;;;8.80;99.90;;;;;;5092117;28;20050;-83
2023/03/20 02:54:37;;;;;;;16.65;7.53;;;8.20;99.90;;;;;;5074807;28;20043;-83
2023/03/20 02:57:24;;;;;;;18.85;8.50;;;7.10;99.90;;;;;;5109861;28;20091;-82
2023/03/20 03:00:00;;;;;;;16.50;7.68;;;7.10;99.90;;;;;;5086525;28;20090;-83
2023/03/20 03:02:34;;;;;;;15.45;7.78;;;7.20;99.90;;;;;;5091072;28;20038;-81
2023/03/20 03:05:12;;;;;;;19.30;8.30;;;7.00;99.90;;;;;;5091748;28;20089;-84
2023/03/20 03:07:43;;;;;;;16.35;7.95;;;7.20;99.90;;;;;;5084644;28;20071;-85
2023/03/20 03:10:35;;;;;;;21.52;8.65;;;8.70;99.90;;;;;;5073381;28;20483;-83
2023/03/20 03:13:03;;;;;;;15.25;8.13;;;7.30;99.90;;;;;;5109908;28;20119;-82
2023/03/20 03:15:37;;;;;;;15.95;8.10;;;8.10;99.90;;;;;;5074642;28;20438;-82
2023/03/20 03:18:05;;;;;;;19.73;8.32;;;7.40;99.90;;;;;;5074573;28;20044;-82
2023/03/20 03:20:37;;;;;;;19.33;8.20;;;7.20;99.90;;;;;;5067226;28;20463;-85
2023/03/20 03:23:04;;;;;;;18.00;7.93;;;7.20;99.90;;;;;;5073959;28;20043;-84
2023/03/20 03:25:38;;;;;;;14.93;8.65;;;8.20;99.90;;;;;;5091187;28;20040;-82
2023/03/20 03:28:25;;;;;;;19.10;8.98;;;7.20;99.90;;;;;;5091095;28;20093;-82
2023/03/20 03:30:52;;;;;;;14.70;7.70;;;7.90;99.90;;;;;;5085070;28;20471;-86
2023/03/20 03:33:26;;;;;;;14.25;8.10;;;9.30;99.90;;;;;;5073913;28;20054;-83
2023/03/20 03:36:19;;;;;;;14.57;8.52;;;9.60;99.90;;;;;;5091535;28;20042;-83
2023/03/20 03:39:26;;;;;;;16.83;8.27;;;7.30;99.90;;;;;;5039524;28;20102;-84
2023/03/20 03:42:21;;;;;;;25.75;8.40;;;6.70;99.90;;;;;;5103868;28;20066;-82
2023/03/20 03:44:55;;;;;;;21.95;8.23;;;4.60;99.90;;;;;;5084812;28;20046;-83
2023/03/20 03:47:31;;;;;;;17.13;8.15;;;7.30;99.90;;;;;;5091221;28;20040;-83
2023/03/20 03:50:07;;;;;;;12.15;7.60;;;10.70;99.90;;;;;;5091221;28;20054;-82
2023/03/20 03:52:35;;;;;;;14.55;7.53;;;7.30;99.90;;;;;;5065432;28;20487;-83
2023/03/20 03:55:08;;;;;;;16.75;8.07;;;6.50;99.90;;;;;;5109128;28;20039;-83
2023/03/20 03:57:57;;;;;;;13.93;7.30;;;7.40;99.90;;;;;;5065542;28;20046;-83
2023/03/20 04:00:26;;;;;;;15.48;6.82;;;7.80;99.90;;;;;;5073964;28;20889;-82
2023/03/20 04:02:55;;;;;;;10.63;6.45;;;7.30;99.90;;;;;;5091189;28;20047;-81
2023/03/20 04:05:23;;;;;;;11.05;6.35;;;7.30;99.90;;;;;;5073193;28;20062;-84
2023/03/20 04:07:54;;;;;;;12.20;6.95;;;9.00;99.90;;;;;;5074052;28;20042;-84
2023/03/20 04:10:20;;;;;;;10.48;6.90;;;7.10;99.90;;;;;;5073690;28;20036;-84
2023/03/20 04:12:46;;;;;;;16.80;7.25;;;10.60;99.90;;;;;;5108519;28;20502;-83
2023/03/20 04:15:13;;;;;;;17.02;7.50;;;7.30;99.90;;;;;;5108416;28;20130;-84
2023/03/20 04:17:39;;;;;;;13.43;7.47;;;10.60;99.90;;;;;;5090484;28;20046;-83
2023/03/20 04:20:07;;;;;;;14.30;7.90;;;8.60;99.90;;;;;;5089310;28;20028;-85
2023/03/20 04:22:33;;;;;;;15.82;7.95;;;7.20;99.90;;;;;;5089945;28;20047;-84
2023/03/20 04:25:14;;;;;;;11.82;7.65;;;9.90;99.90;;;;;;5108709;28;20529;-84
2023/03/20 04:27:39;;;;;;;16.23;7.30;;;10.10;99.90;;;;;;5100486;28;20070;-83
2023/03/20 04:30:06;;;;;;;11.45;7.93;;;7.30;99.90;;;;;;5090538;28;20081;-83
2023/03/20 04:32:32;;;;;;;17.98;7.28;;;7.40;99.90;;;;;;5073473;28;20112;-82
2023/03/20 04:34:58;;;;;;;14.48;8.13;;;9.50;99.90;;;;;;5072715;28;20040;-83
2023/03/20 04:37:23;;;;;;;17.00;8.02;;;7.30;99.90;;;;;;5089688;28;20054;-82
2023/03/20 04:39:49;;;;;;;11.88;7.55;;;;;;;;;;5108966;28;20043;-84
2023/03/20 04:42:16;;;;;;;11.75;8.40;;;7.30;99.90;;;;;;5072663;28;20047;-83
2023/03/20 04:44:41;;;;;;;12.98;7.63;;;10.50;99.90;;;;;;5073542;28;20471;-84
2023/03/20 04:47:09;;;;;;;17.80;8.73;;;7.00;99.90;;;;;;5107090;28;20051;-84
2023/03/20 04:49:35;;;;;;;12.52;7.68;;;9.50;99.90;;;;;;5108533;28;20114;-85
2023/03/20 04:52:01;;;;;;;14.40;7.97;;;9.30;99.90;;;;;;5090119;28;20126;-84
2023/03/20 04:54:26;;;;;;;14.20;8.23;;;10.50;99.90;;;;;;5089236;28;20083;-84
2023/03/20 04:56:52;;;;;;;10.90;7.43;;;;;;;;;;5090078;28;20440;-83
2023/03/20 04:59:18;;;;;;;10.52;7.18;;;7.20;99.90;;;;;;5073538;28;20223;-83
2023/03/20 05:01:44;;;;;;;12.27;8.25;;;10.60;99.90;;;;;;5089629;28;20750;-84
2023/03/20 05:04:09;;;;;;;17.55;8.73;;;9.10;99.90;;;;;;5072612;28;20047;-85
2023/03/20 05:06:35;;;;;;;14.13;7.88;;;10.30;99.90;;;;;;5072698;28;20127;-84
2023/03/20 05:09:01;;;;;;;12.60;8.07;;;8.80;99.90;;;;;;5107774;28;20152;-83
2023/03/20 05:11:27;;;;;;;11.35;7.25;;;8.90;99.90;;;;;;5108395;28;20047;-83
2023/03/20 05:13:54;;;;;;;12.90;7.35;;;;;;;;;;5090196;28;20032;-82
2023/03/20 05:16:20;;;;;;;12.30;6.82;;;7.30;99.90;;;;;;5072230;28;20409;-82
2023/03/20 05:18:46;;;;;;;16.42;8.18;;;10.50;99.90;;;;;;5090198;28;20035;-82
2023/03/20 05:21:12;;;;;;;18.63;8.13;;;7.40;99.90;;;;;;5089739;28;20104;-83
2023/03/20 05:23:37;;;;;;;15.52;7.30;;;7.30;99.90;;;;;;5099387;28;20542;-86
2023/03/20 05:26:03;;;;;;;14.02;7.50;;;7.30;99.90;;;;;;5089615;28;20043;-86
2023/03/20 05:28:29;;;;;;;16.73;7.85;;;7.20;99.90;;;;;;5108308;28;20479;-83
2023/03/20 05:30:55;;;;;;;13.93;7.65;;;7.10;99.90;;;;;;5072415;28;20039;-85
2023/03/20 05:33:21;;;;;;;14.82;8.15;;;4.20;99.90;;;;;;5090367;28;20142;-85
2023/03/20 05:35:47;;;;;;;16.00;7.25;;;10.60;99.90;;;;;;5093460;28;20071;-86
2023/03/20 05:38:12;;;;;;;18.10;7.30;;;10.50;99.90;;;;;;5092469;28;20070;-84
2023/03/20 05:40:38;;;;;;;13.65;7.32;;;7.10;99.90;;;;;;5068655;28;20506;-85
2023/03/20 05:43:04;;;;;;;13.80;8.10;;;7.20;99.90;;;;;;5093100;28;20045;-85
2023/03/20 05:45:30;;;;;;;17.25;8.40;;;7.20;99.90;;;;;;5111270;28;20036;-87
2023/03/20 05:47:55;;;;;;;9.90;7.35;;;10.80;99.90;;;;;;5111367;28;20047;-86
2023/03/20 05:50:21;;;;;;;16.48;7.85;;;10.90;99.90;;;;;;5110920;28;20044;-86
2023/03/20 05:52:48;;;;;;;16.80;8.13;;;7.20;99.90;;;;;;5076715;28;20131;-85
2023/03/20 05:55:14;;;;;;;15.57;8.35;;;10.10;99.90;;;;;;5075895;28;20047;-84
2023/03/20 05:57:40;;;;;;;16.23;8.50;;;7.20;99.90;;;;;;5075680;28;20035;-84
2023/03/20 06:00:07;;;;;;;12.38;8.10;;;7.20;99.90;;;;;;5092976;28;20093;-84
2023/03/20 06:02:33;;;;;;;14.40;8.35;;;7.20;99.90;;;;;;5076119;28;20090;-84
2023/03/20 06:04:59;;;;;;;19.30;8.55;;;9.00;99.90;;;;;;5110609;28;20063;-85
2023/03/20 06:07:24;;;;;;;15.00;9.30;;;7.70;99.90;;;;;;5075574;28;20562;-87
2023/03/20 06:09:50;;;;;;;13.48;9.02;;;7.10;99.90;;;;;;5076186;28;20038;-84
2023/03/20 06:12:16;;;;;;;17.33;8.90;;;7.20;99.90;;;;;;5074887;28;20101;-88
2023/03/20 06:14:42;;;;;;;17.52;9.38;;;9.70;99.90;;;;;;5111421;28;20292;-85
2023/03/20 06:17:08;;;;;;;12.30;8.48;;;10.30;99.90;;;;;;5075418;28;20046;-86
2023/03/20 06:19:34;;;;;;;18.13;9.98;;;9.60;99.90;;;;;;5092323;28;20043;-87
2023/03/20 06:22:00;;;;;;;18.02;9.68;;;7.20;99.90;;;;;;5110824;28;20105;-86
2023/03/20 06:24:25;;;;;;;14.40;8.43;;;6.50;99.90;;;;;;5110382;28;20094;-83
2023/03/20 06:26:51;;;;;;;15.75;9.63;;;10.40;99.90;;;;;;5074973;28;20035;-85
2023/03/20 06:29:17;;;;;;;18.13;9.05;;;9.60;99.90;;;;;;5092328;28;20050;-83
2023/03/20 06:31:45;;;;;;;14.57;9.88;;;7.20;99.90;;;;;;5093017;28;20035;-84
2023/03/20 06:34:12;;;;;;;18.15;10.15;;;10.50;99.90;;;;;;5091547;28;20047;-82
2023/03/20 06:36:37;;;;;;;15.45;9.70;;;7.30;99.90;;;;;;5092063;28;20101;-84
2023/03/20 06:39:04;;;;;;;11.65;9.38;;;10.30;99.90;;;;;;5075250;28;20053;-83
2023/03/20 06:41:30;;;;;;;16.50;9.18;;;;;;;;;;5091973;28;20123;-86
2023/03/20 06:43:55;;;;;;;14.27;9.57;;;7.30;99.90;;;;;;5075823;28;20036;-84
2023/03/20 06:46:21;;;;;;;17.80;9.85;;;7.20;99.90;;;;;;5091114;28;20047;-83
2023/03/20 06:48:47;;;;;;;16.13;9.85;;;9.70;99.90;;;;;;5091817;28;20101;-84
2023/03/20 06:51:14;;;;;;;15.10;9.55;;;10.90;99.90;;;;;;5074630;28;20147;-86
2023/03/20 06:53:40;;;;;;;15.27;9.40;;;9.90;99.90;;;;;;5074813;28;20051;-82
2023/03/20 06:56:07;;;;;;;17.40;9.27;;;7.30;99.90;;;;;;5074272;28;20256;-83
2023/03/20 06:58:33;;;;;;;18.58;9.98;;;7.30;99.90;;;;;;5110327;28;20044;-83
2023/03/20 07:00:59;;;;;;;14.77;8.80;;;10.00;99.90;;;;;;5074440;28;20184;-82
2023/03/20 07:03:24;;;;;;;16.85;10.02;;;7.60;99.90;;;;;;5092000;28;20040;-83
2023/03/20 07:05:50;;;;;;;14.07;10.57;;;7.40;99.90;;;;;;5075160;28;20039;-82
2023/03/20 07:08:16;;;;;;;16.65;10.52;;;7.50;99.90;;;;;;5073668;28;20074;-82
2023/03/20 07:10:42;;;;;;;18.10;12.35;;;9.50;99.90;;;;;;5075010;28;20036;-83
2023/03/20 07:13:09;;;;;;;15.88;9.85;;;10.50;99.90;;;;;;5091526;28;20043;-83
2023/03/20 07:15:35;;;;;;;22.98;10.40;;;;;;;;;;5074082;28;20127;-83
2023/03/20 07:18:01;;;;;;;17.48;10.23;;;7.40;99.90;;;;;;5091313;28;20040;-84
2023/03/20 07:20:27;;;;;;;16.77;9.73;;;;;;;;;;5074864;28;20521;-84
2023/03/20 07:22:54;;;;;;;17.42;9.85;;;;;;;;;;5090855;28;20500;-83
2023/03/20 07:25:20;;;;;;;20.90;9.48;;;7.50;99.90;;;;;;5091124;28;20139;-83
2023/03/20 07:27:49;;;;;;;17.13;10.38;;;10.10;99.90;;;;;;5109787;28;20547;-84
2023/03/20 07:30:16;;;;;;;19.42;10.48;;;10.70;99.90;;;;;;5073596;28;20082;-85
2023/03/20 07:32:43;;;;;;;16.92;10.00;;;10.70;99.90;;;;;;5066392;28;20463;-84
2023/03/20 07:35:12;;;;;;;15.57;9.57;;;6.40;99.90;;;;;;5071491;28;20039;-84
2023/03/20 07:37:38;;;;;;;21.75;10.40;;;7.60;99.90;;;;;;5074192;28;20044;-85
2023/03/20 07:40:04;;;;;;;17.15;9.95;;;10.40;99.90;;;;;;5073926;28;20522;-84
2023/03/20 07:42:30;;;;;;;20.05;10.18;;;7.70;99.90;;;;;;5074144;28;20059;-85
2023/03/20 07:44:55;;;;;;;19.27;10.93;;;9.80;99.90;;;;;;5090966;28;20034;-85
2023/03/20 07:47:21;;;;;;;19.48;10.80;;;10.10;99.90;;;;;;5090776;28;20044;-86
2023/03/20 07:49:47;;;;;;;19.35;11.20;;;7.70;99.90;;;;;;5108756;28;20118;-87
2023/03/20 07:52:13;;;;;;;17.25;10.40;;;9.20;99.90;;;;;;5090490;28;20070;-86
2023/03/20 07:54:39;;;;;;;21.20;12.05;;;5.90;99.90;;;;;;5091231;28;20078;-86
2023/03/20 07:57:05;;;;;;;15.77;10.75;;;8.00;99.90;;;;;;5089220;28;20039;-89
2023/03/20 07:59:31;;;;;;;16.05;10.60;;;7.70;99.90;;;;;;5074119;28;20041;-89
2023/03/20 08:01:57;;;;;;;15.30;10.13;;;7.80;99.90;;;;;;5073854;28;20123;-86
2023/03/20 08:04:22;;;;;;;21.20;10.90;;;7.60;99.90;;;;;;5108200;28;20044;-85
2023/03/20 08:06:48;;;;;;;23.58;10.32;;;8.00;99.90;;;;;;5073920;28;20043;-86
2023/03/20 08:09:15;;;;;;;23.80;11.75;;;11.40;99.90;;;;;;5089924;28;20121;-86
2023/03/20 08:11:41;;;;;;;20.50;11.82;;;7.80;99.90;;;;;;5090778;28;20088;-89
2023/03/20 08:14:07;;;;;;;20.42;10.82;;;10.30;99.90;;;;;;5073431;28;20409;-82
2023/03/20 08:16:32;;;;;;;21.65;11.43;;;10.50;99.90;;;;;;5073286;28;20445;-83
2023/03/20 08:19:00;;;;;;;17.23;11.30;;;8.20;99.90;;;;;;5108580;28;20114;-83
2023/03/20 08:21:30;;;;;;;19.02;11.52;;;11.20;99.90;;;;;;5073762;28;20044;-82
2023/03/20 08:23:56;;;;;;;18.85;11.05;;;11.30;99.90;;;;;;5089694;28;20482;-82
2023/03/20 08:26:22;;;;;;;21.48;11.25;;;11.20;99.90;;;;;;5108756;28;20048;-82
2023/03/20 08:28:48;;;;;;;22.35;11.25;;;8.10;99.90;;;;;;5074132;28;20130;-83
2023/03/20 08:31:15;;;;;;;17.08;10.75;;;9.10;99.90;;;;;;5072759;28;20134;-83
2023/03/20 08:33:40;;;;;;;18.75;11.35;;;8.10;99.90;;;;;;5108677;28;20522;-83
2023/03/20 08:36:06;;;;;;;19.95;11.38;;;8.10;99.90;;;;;;5108062;28;20032;-85
2023/03/20 08:38:32;;;;;;;20.63;12.02;;;8.20;99.90;;;;;;5089766;28;20498;-85
2023/03/20 08:40:58;;;;;;;21.08;11.38;;;11.50;99.90;;;;;;5090646;28;20031;-85
2023/03/20 08:43:23;;;;;;;18.05;11.13;;;11.20;99.90;;;;;;5108836;28;20047;-85
2023/03/20 08:45:49;;;;;;;16.33;10.43;;;10.80;99.90;;;;;;5072892;28;20039;-85
2023/03/20 08:48:15;;;;;;;20.65;10.18;;;10.10;99.90;;;;;;5089983;28;20048;-85
2023/03/20 08:50:41;;;;;;;16.00;10.40;;;9.80;99.90;;;;;;5108910;28;20473;-85
2023/03/20 08:53:07;;;;;;;23.20;10.25;;;;;;;;;;5089235;28;20050;-85
2023/03/20 08:55:33;;;;;;;21.40;11.63;;;8.30;99.90;;;;;;5073492;28;20479;-85
2023/03/20 08:57:58;;;;;;;21.00;10.80;;;8.80;99.90;;;;;;5089672;28;20047;-86
2023/03/20 09:00:24;;;;;;;19.27;9.95;;;8.30;99.90;;;;;;5072744;28;20486;-85
2023/03/20 09:02:51;;;;;;;19.63;11.10;;;;;;;;;;5073551;28;20050;-86
2023/03/20 09:05:16;;;;;;;17.77;10.65;;;8.40;99.90;;;;;;5108023;28;20043;-86
2023/03/20 09:07:43;;;;;;;18.67;10.13;;;11.20;99.90;;;;;;5089452;28;20043;-85
2023/03/20 09:10:10;;;;;;;17.90;10.20;;;11.80;99.90;;;;;;5076458;28;20043;-84
2023/03/20 09:12:35;;;;;;;18.92;9.45;;;8.50;99.90;;;;;;5093459;28;20057;-81
2023/03/20 09:15:02;;;;;;;14.82;9.75;;;10.10;99.90;;;;;;5094048;28;20115;-83
2023/03/20 09:17:27;;;;;;;19.17;10.63;;;8.30;99.90;;;;;;5093675;28;20043;-83
2023/03/20 09:19:53;;;;;;;16.27;9.05;;;8.90;99.90;;;;;;5076640;28;20048;-85
2023/03/20 09:22:19;;;;;;;13.55;8.77;;;10.10;99.90;;;;;;5112337;28;20036;-83
2023/03/20 09:24:45;;;;;;;16.90;9.73;;;11.60;99.90;;;;;;5077150;28;20050;-83
2023/03/20 09:27:15;;;;;;;14.73;9.13;;;8.80;99.90;;;;;;5075562;28;20039;-81
2023/03/20 09:29:41;;;;;;;20.00;9.20;;;9.50;99.90;;;;;;5077288;28;20035;-84
2023/03/20 09:32:10;;;;;;;16.63;9.63;;;8.90;99.90;;;;;;5093061;28;20078;-82
2023/03/20 09:34:36;;;;;;;16.00;8.65;;;8.80;99.90;;;;;;5092952;28;20054;-83
2023/03/20 09:37:02;;;;;;;18.85;9.48;;;11.00;99.90;;;;;;5076303;28;20028;-84
2023/03/20 09:39:28;;;;;;;16.50;8.45;;;10.20;99.90;;;;;;5076782;28;20103;-83
2023/03/20 09:41:56;;;;;;;17.38;9.57;;;8.90;99.90;;;;;;5076132;28;20039;-82
2023/03/20 09:44:50;;;;;;;19.73;10.23;;;11.30;99.90;;;;;;5093142;28;20399;-83
2023/03/20 09:47:45;;;;;;;13.80;8.70;;;11.00;99.90;;;;;;5075726;28;20036;-84
2023/03/20 09:50:35;;;;;;;22.63;9.27;;;9.00;99.90;;;;;;5088336;28;20036;-83
2023/03/20 09:53:12;;;;;;;15.45;8.57;;;9.00;99.90;;;;;;5070197;28;20032;-83
2023/03/20 09:55:42;;;;;;;21.15;9.25;;;9.10;99.90;;;;;;5092644;28;20035;-85
2023/03/20 09:58:25;;;;;;;18.80;8.93;;;10.10;99.90;;;;;;5111092;28;20196;-86
2023/03/20 10:00:50;;;;;;;18.38;8.40;;;9.10;99.90;;;;;;5085852;28;20039;-84
2023/03/20 10:03:19;;;;;;;14.32;9.05;;;9.10;99.90;;;;;;5075045;28;20044;-84
2023/03/20 10:05:49;;;;;;;20.20;9.43;;;11.60;99.90;;;;;;5093438;28;20035;-86
2023/03/20 10:08:19;;;;;;;17.77;8.38;;;9.30;99.90;;;;;;5075902;28;20248;-82
2023/03/20 10:11:08;;;;;;;24.13;11.38;;;9.20;99.90;;;;;;5084425;28;20039;-82
2023/03/20 10:13:37;;;;;;;15.00;9.25;;;9.50;99.90;;;;;;5076070;28;20051;-83
2023/03/20 10:16:36;;;;;;;19.35;8.98;;;9.80;99.90;;;;;;5075132;28;20376;-83
2023/03/20 10:19:26;;;;;;;17.38;7.70;;;9.50;99.90;;;;;;5086309;28;20503;-83
2023/03/20 10:21:57;;;;;;;15.43;7.60;;;9.50;99.90;;;;;;5104025;28;20035;-83
2023/03/20 10:24:32;;;;;;;17.70;8.27;;;9.50;99.90;;;;;;5092064;28;20643;-82
2023/03/20 10:27:05;;;;;;;19.48;7.30;;;9.40;99.90;;;;;;5075610;28;20043;-83
2023/03/20 10:29:59;;;;;;;24.02;8.88;;;10.00;99.90;;;;;;5111257;28;20043;-82
2023/03/20 10:32:40;;;;;;;26.58;8.32;;;9.50;99.90;;;;;;5092348;28;20487;-83
2023/03/20 10:35:18;;;;;;;23.80;6.72;;;9.50;99.90;;;;;;5075347;28;20050;-84
2023/03/20 10:38:18;;;;;;;17.65;6.88;;;11.70;99.90;;;;;;5083147;28;20047;-83
2023/03/20 10:40:44;;;;;;;18.90;7.65;;;9.50;99.90;;;;;;5092954;28;20061;-84
2023/03/20 10:43:20;;;;;;;14.93;7.03;;;10.10;99.90;;;;;;5092245;28;20039;-85
2023/03/20 10:45:59;;;;;;;16.13;5.78;;;10.80;99.90;;;;;;5091739;28;20036;-83
2023/03/20 10:48:35;;;;;;;14.68;7.18;;;11.70;99.90;;;;;;5075180;28;20039;-83
2023/03/20 10:51:02;;;;;;;16.80;7.65;;;9.60;99.90;;;;;;5074925;28;20036;-83
2023/03/20 10:53:48;;;;;;;17.13;7.65;;;9.60;99.90;;;;;;5075680;28;20039;-85
2023/03/20 10:56:22;;;;;;;16.10;6.65;;;9.60;99.90;;;;;;5074800;28;20399;-82
2023/03/20 10:59:02;;;;;;;16.98;7.07;;;11.60;99.90;;;;;;5101798;28;20023;-82
2023/03/20 11:01:28;;;;;;;19.65;6.95;;;9.60;99.90;;;;;;5075658;28;20075;-83
2023/03/20 11:03:54;;;;;;;13.18;6.22;;;7.30;99.90;;;;;;5091810;28;20519;-82
2023/03/20 11:06:27;;;;;;;15.32;6.45;;;7.00;99.90;;;;;;5074290;28;20079;-82
2023/03/20 11:08:53;;;;;;;20.70;6.57;;;11.20;99.90;;;;;;5103055;28;20054;-81
2023/03/20 11:11:33;;;;;;;11.75;4.60;;;9.40;99.90;;;;;;5092327;28;20044;-83
2023/03/20 11:14:14;;;;;;;18.23;6.40;;;9.30;99.90;;;;;;5067642;28;20084;-82
2023/03/20 11:16:40;;;;;;;18.98;6.32;;;12.30;99.90;;;;;;5110510;28;20035;-84
2023/03/20 11:19:09;;;;;;;12.68;6.82;;;9.80;99.90;;;;;;5074452;28;20156;-84
2023/03/20 11:21:46;;;;;;;14.65;6.10;;;11.10;99.90;;;;;;5092475;28;20035;-83
2023/03/20 11:24:34;;;;;;;13.55;5.65;;;9.70;99.90;;;;;;5074822;28;20035;-85
2023/03/20 11:27:13;;;;;;;16.23;6.10;;;9.20;99.90;;;;;;5084503;28;20444;-82
2023/03/20 11:29:45;;;;;;;11.95;6.32;;;9.20;99.90;;;;;;5110609;28;20100;-83
2023/03/20 11:32:16;;;;;;;15.30;6.22;;;9.30;99.90;;;;;;5108977;28;20128;-85
2023/03/20 11:34:42;;;;;;;16.73;5.85;;;9.40;99.90;;;;;;5091254;28;20133;-82
2023/03/20 11:37:28;;;;;;;17.10;6.20;;;9.40;99.90;;;;;;5073675;28;20476;-82
2023/03/20 11:40:24;;;;;;;9.82;5.22;;;9.30;99.90;;;;;;5067177;28;20042;-84
2023/03/20 11:42:56;;;;;;;9.20;4.70;;;9.30;99.90;;;;;;5066947;28;20564;-85
2023/03/20 11:45:24;;;;;;;12.05;5.55;;;12.30;99.90;;;;;;5091048;28;20044;-84
2023/03/20 11:47:52;;;;;;;12.68;4.88;;;9.30;99.90;;;;;;5100849;28;20043;-84
2023/03/20 11:50:26;;;;;;;12.02;4.63;;;9.40;99.90;;;;;;5074571;28;20388;-85
2023/03/20 11:52:53;;;;;;;9.55;3.88;;;9.10;99.90;;;;;;5083783;28;20032;-84
2023/03/20 11:55:33;;;;;;;11.82;4.43;;;9.20;99.90;;;;;;5090505;28;20547;-82
2023/03/20 11:58:03;;;;;;;8.40;3.75;;;11.80;99.90;;;;;;5067211;28;20092;-81
2023/03/20 12:00:36;;;;;;;16.00;4.68;;;9.80;99.90;;;;;;5091309;28;20051;-83
2023/03/20 12:03:02;;;;;;;7.13;3.25;;;9.00;99.90;;;;;;5090598;28;20035;-84
2023/03/20 12:05:35;;;;;;;6.78;3.13;;;8.80;99.90;;;;;;5073868;28;20051;-85
2023/03/20 12:08:22;;;;;;;12.35;3.92;;;11.00;99.90;;;;;;5090790;28;20051;-84
2023/03/20 12:10:54;;;;;;;7.18;2.70;;;9.10;99.90;;;;;;5083161;28;20044;-83
2023/03/20 12:13:34;;;;;;;10.75;3.28;;;10.60;99.90;;;;;;5090795;28;20040;-83
2023/03/20 12:16:29;;;;;;;6.82;3.53;;;9.30;99.90;;;;;;5065881;28;20036;-85
2023/03/20 12:18:59;;;;;;;11.15;4.20;;;8.90;99.90;;;;;;5081654;28;20403;-84
2023/03/20 12:21:38;;;;;;;11.95;4.20;;;11.50;99.90;;;;;;5090839;28;20043;-82
2023/03/20 12:24:26;;;;;;;10.82;3.63;;;9.10;99.90;;;;;;5089849;28;20104;-82
2023/03/20 12:27:01;;;;;;;9.23;3.75;;;8.90;99.90;;;;;;5100991;28;20039;-86
2023/03/20 12:29:51;;;;;;;9.52;3.92;;;8.80;99.90;;;;;;5072824;28;20130;-85
2023/03/20 12:32:35;;;;;;;9.15;3.80;;;8.50;99.90;;;;;;5073223;28;20040;-84
2023/03/20 12:35:16;;;;;;;14.23;3.88;;;9.30;99.90;;;;;;5066941;28;20043;-86
2023/03/20 12:37:42;;;;;;;8.23;3.67;;;10.50;99.90;;;;;;5107838;28;20039;-84
2023/03/20 12:40:15;;;;;;;8.85;3.90;;;8.30;99.90;;;;;;5108428;28;20042;-83
2023/03/20 12:43:03;;;;;;;8.85;3.80;;;6.60;99.90;;;;;;5090889;28;20044;-85
2023/03/20 12:45:41;;;;;;;9.13;3.40;;;11.40;99.90;;;;;;5076911;28;20378;-85
2023/03/20 12:48:38;;;;;;;8.70;4.07;;;11.20;99.90;;;;;;5094249;28;20339;-85
2023/03/20 12:51:13;;;;;;;11.77;4.60;;;8.70;99.90;;;;;;5087278;28;20047;-83
2023/03/20 12:53:48;;;;;;;9.75;5.15;;;11.00;99.90;;;;;;5094745;28;20191;-82
2023/03/20 12:56:25;;;;;;;9.73;4.85;;;8.40;99.90;;;;;;5093845;28;20092;-83
2023/03/20 12:59:32;;;;;;;13.25;5.53;;;8.60;99.90;;;;;;5085706;28;20437;-83
2023/03/20 13:02:16;;;;;;;12.95;6.43;;;8.50;99.90;;;;;;5071605;28;20199;-83
2023/03/20 13:05:07;;;;;;;12.57;6.27;;;8.50;99.90;;;;;;5093712;28;20043;-82
2023/03/20 13:08:02;;;;;;;9.82;4.60;;;8.40;99.90;;;;;;5077316;28;20039;-83
2023/03/20 13:10:32;;;;;;;6.82;3.88;;;8.40;99.90;;;;;;5094372;28;20051;-84
2023/03/20 13:13:15;;;;;;;7.72;4.30;;;8.50;99.90;;;;;;5076740;28;20123;-83
2023/03/20 13:16:01;;;;;;;6.65;4.28;;;6.00;99.90;;;;;;5094139;28;20036;-83
2023/03/20 13:18:39;;;;;;;8.90;4.90;;;11.20;99.90;;;;;;5083606;28;20047;-83
2023/03/20 13:21:33;;;;;;;10.25;6.55;;;8.40;99.90;;;;;;5081230;28;20135;-82
2023/03/20 13:24:06;;;;;;;9.30;5.93;;;9.40;99.90;;;;;;5077565;28;20044;-83
2023/03/20 13:26:45;;;;;;;10.07;5.70;;;8.40;99.90;;;;;;5058463;28;20448;-84